RELACIONES PÚBLICAS

23/03/2017DÍA METEOROLÓGICO MUNDIAL 2017   Cada 23 de marzo la Organización Meteorológica Mundial (OMM) celebra la entrada en vigencia del Convenio mediante el cual fue creado, en 1950. Este día es conocido como el Día Meteorológico Mundial, y en él se celebra y destaca la importancia que los Servicios Meteorológicos e Hidrológicos Nacionales tienen en cada país, puesto que contribuyen al mantenimiento de la seguridad y el bienestar general. A su vez, a cada Día Meteorológico Mundial se le asigna un tema específico. Este año el tema elegido es " Entendiendo las nubes"; con el fin de resaltar la enorme importancia que revisten las nubes para el tiempo, el clima y el agua.https://www.youtube.com/watch?v=BazVcoxsscw&feature=youtu.behttps://public.wmo.int/es/D%C3%ADa-Meteorol%C3%B3gico-Mundial-2017

Productos aeronáuticos

  • SIGMET
  • METAR / SPECI
  • TAF
  • AIREP
  • Aviso de aeródromo
  • Pronárea
  • Carta superficie
Fecha : 26/03/2017
FTUY 03 SUMU 26 11 30
SUMU TAF 261130Z 2612/2712 07005KT CAVOK TX27/2618Z TN18/2710Z BECMG 2612/2616 05013KT 9999 SCT020 BECMG 2617/2621 08015KT=
SULS TAF 261130Z 2612/2712 08010KT 9999 FEW016 TX26/2618Z TN18/2710Z BECMG 2612/2616 05015KT 9999 SCT020 =
SUAA TAF 261130Z 2612/2712 05010KT CAVOK TX28/2618Z TN18/2710Z BECMG 2612/2616 05013KT 9999 SCT023=
SUCA TAF 261130Z 2612/2712 04012KT CAVOK TX28/2618Z TN18/2710Z BECMG 2612/2616 05013KT 9999 SCT023 BKN080 BKN200 =
SUDU TAF 261130Z 2612/2712 07010KT CAVOK TX29/2618Z TN17/2710Z BECMG 2612/2616 06015KT 9999 BKN015 SCT080 BKN200 =
SUSO TAF 261130Z 2612/2712 10005KT CAVOK TX30/2618Z TN18/2710Z BECMG 2612/2616 08010KT 9999 SCT025 BKN080 OVC200 =
SURV TAF 261130Z 2612/2712 08004KT 9999 BKN010 TX30/2618Z TN17/2710Z BECMG 2612/2616 07013KT 9999 SCT025 BKN080 BKN200=

Predictor : Alejandro Curiel


Mensajes TAF vigentes - Internacionales


Argentina
TAF SAAR 261100Z 2612/2712 VRB03KT 6000 SHRA BKN020 FEW040CB BKN050 TX33/2618Z TN19/2609Z BECMG 2614/2616 05010KT 9999 SCT020 FEW035TCU BKN100
TAF SACO 261100Z 2612/2712 05005KT 9999 SCT020 FEW040CB TX27/2618Z TN16/2610Z BECMG 2612/2614 05010KT 5000 TS SHRA SCT010 BKN020 FEW040CB PROB40 TEMPO 2613/2615 1500 TSRA BECMG 2620/2623 09010KT 9999 BKN025
TAF SABE 261100Z 2612/2712 05015KT 9999 SCT020 BKN060 TX29/2618Z TN21/2609Z BECMG 2614/2616 07010KT 9999 SCT020 FEW040TCU BKN100 BECMG 2622/2700 09015KT
TAF SAEZ 261100Z 2612/2712 05005KT 5000 BR SCT020 SCT100 TX29/2618Z TN19/2609Z BECMG 2612/2614 05010KT 9999 SCT020 FEW040TCU BKN030 BECMG 2622/2700 07015KT
TAF SAME 261100Z 2612/2712 14005KT 9999 SCT030 FEW040TCU TX30/2620Z TN18/2710Z BECMG 2620/2622 14010KT 8000 SCT020 SCT030TCU FEW040CB
Bolivia
TAF SLLP 261020Z 2612/2712 07007KT 6000 FEW006 SCT015 BKN070 TX15/2620Z TN05/2710Z BECMG 2614/2616 13008KT 9999 SCT015 FEW017CB SCT070 TEMPO 2617/2621 33012KT 8000 TSRA BECMG 2703/2706 07004KT 4000E VCFG FEW002 SCT012
Brasil
TAF SBSP 261020Z 2612/2712 24005KT 9999 SCT030 TX26/2617Z TN17/2708Z BECMG 2615/2617 17010KT BKN025 PROB30 2618/2621 RA BKN017 BECMG 2621/2623 16007KT FEW015 BECMG 2702/2704 00000KT 8000 NSC PROB30 2707/2711 6000 BKN009 RMK PGE
TAF SBGR 261020Z 2612/2718 16005KT CAVOK TX26/2617Z TN16/2709Z BECMG 2613/2615 22005KT 9999 SCT040 BECMG 2616/2618 16010KT BKN035 PROB30 2618/2621 RA BKN020 BECMG 2621/2623 15005KT CAVOK BECMG 2701/2703 11003KT 8000 NSC PROB30 2708/2711 5000 BR BKN008 BECMG 2712/2714 07005KT CAVOK BECMG 2715/2717 SCT040 RMK PGE
TAF SBFI 260930Z 2612/2712 13002KT 9999 SCT040 TX30/2618Z TN24/2709Z BECMG 2616/2618 9999 SCT030 FEW035TCU PROB40 TEMPO 2618/2622 8000 VCSH PRO B40 TEMPO 2622/2706 5000 TSRA SCT020 FEW035CB BECMG 2706/2708 6000 RA BK N010 RMK PDV
TAF SBFL 260930Z 2612/2712 17009KT 9999 SCT020 TX26/2616Z TN20/2709Z BECMG 2614/2616 17012KT SCT025 PROB40 TEMPO 2618/2702 8000 RA BKN015 RMK P DV
TAF SBPA 260930Z 2612/2712 10008KT 9999 SCT035 TX28/2618Z TN18/2709Z BECMG 2616/2618 09015KT CAVOK BECMG 2620/2622 10012KT BECMG 2700/2702 1000 8KT BECMG 2708/2710 09010KT RMK PDV
TAF SBRJ 260840Z 2612/2624 27010KT 7000 SCT020 TX30/2617Z TN24/2624Z BECMG 2612/2614 24010KT BECMG 2615/2617 20010KT BECMG 2621/2623 24010KT RMK PGW
TAF SBBR 260800Z 2612/2712 04005KT 7000 SCT030 TX29/2618Z TN18/2708Z BECMG 2618/2620 10005KT 7000 FEW040 PROB30 2621/2624 TS FEW040 FEW045CB BECMG 2700/2702 18005KT CAVOK BECMG 2706/2708 36005KT 7000 FEW040 RMK PDE
Colombia
TAF SKBO 261100Z 2612/2712 VRB02KT 9999 SCT015 BKN070 BECMG 2616/2618 26012KT TEMPO 2619/2624 6000 TSRA SCT017CB SCT020 BECMG 2700/2702 05004KT TX18/2618Z TN11/2711Z
Chile
TAF COR SCCI 261108Z 2612/2712 04010KT 9000 FEW010 BKN030 TN06/2709Z TX10/2618Z PROB40 TEMPO 2612/2615 VRB03KT 5000 BR BCFG SCT005 OVC010 PROB40 TEMPO 2615/2620 8000 -DZ BKN010 BECMG 2620/2622 08007KT CEFYMYX SMAA01 SCEF 261200 AAXX 26124 89251 32362 62907 10024 20011 40049 52032 85510 333 20016
TAF SCEL 261006Z 2612/2712 16006KT CAVOK TX26/2619Z TN13/2710Z TEMPO 2612/2614 VRB02KT 7000 NSC BECMG 2614/2616 19008KT BECMG 2616/2618 20012KT BKN180 BECMG 2701/2703 16006KT FEW200 TEMPO 2706/2712 VRB02KT 7000 SCT200
Ecuador
SEQM 260920Z 2612/2712 VRB03KT 9999 BKN026 BKN100 PROB30 TEMPO 2613/2615 DZ BECMG 2617/2619 36010KT TEMPO 2619/2622 SHRA BKN030TCU OVC100 FM270000 04003KT 9999 FEW013 BKN023 BKN100 TEMPO 2702/2705 8000 DZ SCT010 BKN020 OVC100 FM270600 03003KT 6000 BCFG SCT008 BKN016 TX21/2619Z TN11/2711Z
EEUU
KIAD 261128Z 2612/2718 07010KT P6SM OVC015 FM261300 09008KT P6SM OVC008 FM261500 10008KT 4SM -DZ OVC008 FM262300 10009KT 2SM -DZ OVC003 FM270200 12008KT 1SM -DZ OVC008 FM270600 15006KT P6SM OVC008 FM271200 19006KT P6SM BKN008 FM271500 21008KT P6SM BKN010
KDCA 261128Z 2612/2712 08011KT P6SM OVC015 FM261500 09010G18KT 4SM -DZ OVC015 FM270500 14007KT 4SM -DZ OVC015 FM270600 15007KT P6SM OVC010 FM270800 17007KT P6SM OVC015 FM271100 19007KT P6SM BKN008
KJFK 261127Z 2612/2718 04011KT P6SM VCSH SCT020 OVC040 FM261300 07013G18KT P6SM VCSH OVC020 FM262000 09013G18KT 5SM -RA BR SCT008 OVC015 FM270200 09010KT 3SM -DZ BR SCT004 OVC008 FM270600 09010KT 1/2SM -DZ FG BKN004 OVC008 FM271200 12008KT 2SM -DZ BR BKN006 OVC008 FM271600 18008KT 6SM -DZ BKN009
KLGA 261127Z 2612/2712 06017KT P6SM SCT020 OVC040 FM261400 07014G20KT P6SM VCSH OVC020 FM262000 08012G17KT 5SM -RA BR SCT008 OVC015 FM270200 09012KT 3SM -DZ BR SCT004 OVC008 FM270600 09010KT 1/2SM -DZ FG BKN004 OVC008
KMIA 261125Z 2612/2712 08005KT P6SM VCSH FEW025 SCT050 BKN120 FM261400 08013KT P6SM SCT025 BKN050 BKN250 FM270200 08005KT P6SM SCT030 SCT250
España
TAF LEMD 261100Z 2612/2718 17010KT 9999 BKN040 TX16/2616Z TN06/2707Z TEMPO 2612/2706 17015G25KT PROB30 TEMPO 2612/2615 RA PROB30 TEMPO 2612/2619 FEW030TCU TEMPO 2623/2712 RA PROB30 TEMPO 2700/2709 3000 RA BKN010 PROB40 TEMPO 2712/2718 SHRA SCT040TCU
TAF LEBL 261100Z 2612/2712 18008KT 9999 FEW030 TX15/2613Z TN08/2706Z BECMG 2618/2620 VRB03KT BECMG 2700/2702 34008KT BECMG 2706/2708 06009KT PROB30 TEMPO 2709/2712 5000 RA BKN025
Francia
TAF LFPO 261100Z 2612/2718 06007KT CAVOK
Inglaterra
TAF EGLL 261102Z 2612/2718 08014KT CAVOK BECMG 2700/2703 7000 TEMPO 2700/2710 BKN006 PROB30 TEMPO 2703/2709 4000 BR BKN004 BECMG 2708/2711 9999
Panamá
TAF MPTO 261000Z 2612/2718 03008KT 9000 SCT017 PROB30 TEMPO 2616/2620 8000 -SHRA FEW015CB BECMG 2620/2624 33010KT 9999 NSW SCT018
Paraguay
TAF SGAS 261037Z 2612/2712 13006KT 8000 TSRA SCT010 OVC030 FEW040CB TX29/2618Z TN22/2709Z BECMG 2614/2617 13006KT 8000 RA BKN020 BECMG 2618/2620 9999 BKN020 PROB40 2622/2702 6000 TSRA BKN015 FEW040CB BECMG 2703/2706 11005KT 6000 BKN020 PROB40 2708/2711 4000 RA BR BKN010
Venezuela
TAF SVMI 261000Z 2612/2712 00000KT 9999 SCT016 TX33/18Z TN25/08Z FM261400 02003KT 9999 FEW016 SCT100 BECMG 2618/2622 05012KT SCT016

* Datos extraidos del Text DataServer de la NOAA (NOAA TEXT DATA SERVER)

Instituto Uruguayo de Meteorología

Dr. Javier Barrios Amorín 1488 - CP 11200
1895 int 108

Montevideo - Uruguay